createdAt,value
2023-04-15T00:04:56.463Z,9.3
2023-04-15T00:09:03.968Z,8.1
2023-04-15T00:15:17.924Z,9
2023-04-15T00:17:21.601Z,8.2
2023-04-15T00:19:25.212Z,8.1
2023-04-15T00:32:53.836Z,9.2
2023-04-15T00:34:57.341Z,9.7
2023-04-15T00:37:01.039Z,10.6
2023-04-15T00:39:04.650Z,9
2023-04-15T00:41:11.446Z,9.4
2023-04-15T00:43:15.086Z,8.9
2023-04-15T00:45:19.076Z,9
2023-04-15T00:47:22.511Z,9.1
2023-04-15T00:49:26.137Z,7.5
2023-04-15T00:51:29.784Z,8
2023-04-15T00:55:40.200Z,9.1
2023-04-15T00:57:43.826Z,8.8
2023-04-15T00:59:47.502Z,8.4
2023-04-15T01:01:51.298Z,8.7
2023-04-15T01:03:54.914Z,7.9
2023-04-15T01:05:58.832Z,7.9
2023-04-15T01:08:02.170Z,8.2
2023-04-15T01:14:16.272Z,8.3
2023-04-15T01:33:09.335Z,7.9
2023-04-15T01:35:13.010Z,8.2
2023-04-15T01:45:34.384Z,7.8
2023-04-15T01:53:52.119Z,8.3
2023-04-15T01:55:55.877Z,8.5
2023-04-15T02:04:10.857Z,8.1
2023-04-15T02:06:17.380Z,9.1
2023-04-15T02:08:21.122Z,7.7
2023-04-15T02:12:28.496Z,8.9
2023-04-15T02:14:32.228Z,8.4
2023-04-15T02:16:35.934Z,8.7
2023-04-15T02:25:57.193Z,8
2023-04-15T02:28:00.834Z,9
2023-04-15T02:32:08.327Z,10
2023-04-15T02:34:15.107Z,8.2
2023-04-15T02:36:18.746Z,7.8
2023-04-15T02:38:22.449Z,8.3
2023-04-15T02:40:26.125Z,8.3
2023-04-15T02:44:33.571Z,9.2
2023-04-15T02:46:37.312Z,9.5
2023-04-15T02:48:44.121Z,10
2023-04-15T02:50:47.929Z,9.2
2023-04-15T02:52:51.513Z,8.8
2023-04-15T02:54:55.192Z,9.9
2023-04-15T02:56:58.871Z,10
2023-04-15T02:59:02.744Z,9.6
2023-04-15T03:01:06.307Z,8.6
2023-04-15T03:03:13.192Z,9.5
2023-04-15T03:05:16.818Z,9.4
2023-04-15T03:07:20.497Z,9.4
2023-04-15T03:09:24.188Z,9.7
2023-04-15T03:11:27.931Z,9.7
2023-04-15T03:13:31.726Z,8.8
2023-04-15T03:15:35.414Z,9
2023-04-15T03:19:45.851Z,9.1
2023-04-15T03:21:49.487Z,10
2023-04-15T03:22:52.850Z,9.3
2023-04-15T03:24:56.520Z,10.1
2023-04-15T03:37:21.977Z,9.7
2023-04-15T04:00:09.266Z,10.9
2023-04-15T04:02:12.979Z,10.4
2023-04-15T04:04:16.892Z,10.8
2023-04-15T04:06:20.338Z,11.1
2023-04-15T04:08:24.109Z,10.7
2023-04-15T04:10:27.885Z,9.6
2023-04-15T04:12:31.526Z,10.3
2023-04-15T04:14:38.263Z,11.9
2023-04-15T04:16:42.020Z,9.5
2023-04-15T04:18:45.676Z,11
2023-04-15T04:19:49.064Z,11.1
2023-04-15T04:28:07.294Z,12.5
2023-04-15T04:44:40.116Z,12.5
2023-04-15T04:46:43.901Z,12.7
2023-04-15T04:48:47.597Z,13.4
2023-04-15T04:50:51.334Z,13.4
2023-04-15T04:52:55.099Z,12.5
2023-04-15T05:05:20.552Z,13.3
2023-04-15T05:07:24.218Z,13.8
2023-04-15T05:09:27.974Z,15
2023-04-15T05:13:38.471Z,15
2023-04-15T05:15:42.276Z,15.6
2023-04-15T05:18:04.799Z,18.4
2023-04-15T05:34:37.143Z,18.1
2023-04-15T05:36:40.831Z,19
2023-04-15T05:38:47.736Z,20.8
2023-04-15T05:40:51.402Z,20.6
2023-04-15T05:49:06.351Z,27.4
2023-04-15T05:51:10.057Z,27.2
2023-04-15T05:53:16.835Z,29
2023-04-15T05:55:20.503Z,30.6
2023-04-15T05:57:24.166Z,30.2
2023-04-15T05:59:27.861Z,30.1
2023-04-15T06:01:31.500Z,30.1
2023-04-15T06:03:35.371Z,30.7
2023-04-15T06:05:38.857Z,32.5
2023-04-15T06:07:48.355Z,29.3
2023-04-15T06:09:49.249Z,28
2023-04-15T06:11:52.932Z,26
2023-04-15T06:12:56.255Z,25.6
2023-04-15T06:15:00.363Z,22.3
2023-04-15T06:17:03.601Z,18.2
2023-04-15T06:19:07.276Z,15
2023-04-15T06:33:35.901Z,10.4
2023-04-15T06:35:42.582Z,9.8
2023-04-15T06:39:49.899Z,9
2023-04-15T06:41:53.538Z,9.8
2023-04-15T06:43:57.228Z,8.9
2023-04-15T06:46:00.890Z,10.6
2023-04-15T06:48:04.520Z,10
2023-04-15T06:50:11.201Z,10.2
2023-04-15T06:54:18.504Z,8.9
2023-04-15T06:56:22.158Z,9.5
2023-04-15T06:58:25.796Z,9.3
2023-04-15T07:02:33.146Z,9.6
2023-04-15T07:04:39.896Z,10.4
2023-04-15T07:06:43.462Z,10.8
2023-04-15T07:08:47.078Z,10.7
2023-04-15T07:09:50.449Z,11.9
2023-04-15T07:11:54.074Z,11.4
2023-04-15T07:13:59.265Z,11.8
2023-04-15T07:16:02.910Z,10.5
2023-04-15T07:18:09.610Z,10.9
2023-04-15T07:22:16.871Z,11.6
2023-04-15T07:24:20.571Z,11.5
2023-04-15T07:28:27.790Z,11
2023-04-15T07:30:31.459Z,10.5
2023-04-15T07:32:38.195Z,10.9
2023-04-15T07:34:41.772Z,10.3
2023-04-15T07:36:45.413Z,9.6
2023-04-15T07:38:49.030Z,10.9
2023-04-15T07:40:52.683Z,10
2023-04-15T07:42:56.295Z,8.2
2023-04-15T07:44:59.926Z,9.3
2023-04-15T07:47:06.637Z,9
2023-04-15T07:49:10.251Z,8.9
2023-04-15T07:51:13.873Z,7.4
2023-04-15T07:53:17.500Z,7
2023-04-15T07:55:21.155Z,6.9
2023-04-15T08:05:42.248Z,5.2
2023-04-15T08:06:45.580Z,6.2
2023-04-15T08:08:49.181Z,5.8
2023-04-15T08:17:06.696Z,5.7
2023-04-15T08:19:10.292Z,5.1
2023-04-15T08:21:13.864Z,5.3
2023-04-15T08:23:17.445Z,5.3
2023-04-15T08:25:21.008Z,5.3
2023-04-15T08:27:24.636Z,4.7
2023-04-15T08:29:31.297Z,5.4
2023-04-15T08:33:38.455Z,4.6
2023-04-15T08:37:45.637Z,5.8
2023-04-15T08:39:49.195Z,5.1
2023-04-15T08:43:59.439Z,4.4
2023-04-15T08:46:03.006Z,4.5
2023-04-15T08:48:06.592Z,5.4
2023-04-15T08:50:10.164Z,4.5
2023-04-15T08:52:13.728Z,5.5
2023-04-15T08:54:17.281Z,4.8
2023-04-15T08:56:20.888Z,5.2
2023-04-15T08:58:27.514Z,5.2
2023-04-15T09:00:31.100Z,5.4
2023-04-15T09:02:34.798Z,4.9
2023-04-15T09:19:27.031Z,5.4
2023-04-15T09:21:30.591Z,4.6
2023-04-15T09:23:34.108Z,4.6
2023-04-15T09:25:40.730Z,4.5
2023-04-15T09:27:44.311Z,4.8
2023-04-15T09:29:47.836Z,4.5
2023-04-15T09:31:51.351Z,4.1
2023-04-15T09:33:54.954Z,4.1
2023-04-15T09:35:58.494Z,4
2023-04-15T09:38:01.988Z,4
2023-04-15T09:46:19.252Z,4.1
2023-04-15T09:48:22.765Z,3.7
2023-04-15T09:50:26.692Z,3.3
2023-04-15T09:54:36.586Z,4.1
2023-04-15T09:56:39.931Z,3.5
2023-04-15T09:58:43.497Z,3.6
2023-04-15T09:59:46.824Z,4
2023-04-15T10:01:50.417Z,3.1
2023-04-15T10:03:53.965Z,3.5
2023-04-15T10:05:57.357Z,3.7
2023-04-15T10:08:03.967Z,3.8
2023-04-15T10:12:10.992Z,4.3
2023-04-15T10:14:14.463Z,3.2
2023-04-15T10:16:18.037Z,3.5
2023-04-15T10:18:21.484Z,3.8
2023-04-15T10:22:31.534Z,3.7
2023-04-15T10:24:35.040Z,2.9
2023-04-15T10:26:38.580Z,3.2
2023-04-15T10:30:45.570Z,3
2023-04-15T10:32:49.091Z,3
2023-04-15T10:36:59.150Z,2.8
2023-04-15T10:39:02.674Z,2.3
2023-04-15T10:41:06.166Z,3
2023-04-15T10:47:16.637Z,2.6
2023-04-15T10:49:20.123Z,2
2023-04-15T10:51:26.734Z,2.7
2023-04-15T10:53:30.243Z,2.5
2023-04-15T10:55:33.729Z,2.1
2023-04-15T10:56:37.034Z,2.4
2023-04-15T10:58:40.550Z,1.9
2023-04-15T11:00:44.044Z,2.2
2023-04-15T11:06:57.614Z,2.4
2023-04-15T11:09:01.114Z,2
2023-04-15T11:11:04.627Z,2.3
2023-04-15T11:13:08.129Z,1.5
2023-04-15T11:17:15.013Z,1.7
2023-04-15T11:23:28.643Z,1.5
2023-04-15T11:25:32.815Z,1.4
2023-04-15T11:27:35.620Z,1.8
2023-04-15T11:29:39.075Z,1.7
2023-04-15T11:31:42.644Z,1.4
2023-04-15T11:35:52.679Z,1.7
2023-04-15T11:37:56.166Z,1.4
2023-04-15T11:39:59.631Z,1.3
2023-04-15T11:42:03.140Z,1.2
2023-04-15T11:44:06.629Z,1.4
2023-04-15T11:46:10.162Z,1.6
2023-04-15T11:48:16.691Z,1.7
2023-04-15T11:50:20.154Z,1.4
2023-04-15T11:52:23.665Z,2.1
2023-04-15T11:53:26.946Z,1.4
2023-04-15T11:55:30.444Z,1.5
2023-04-15T11:57:33.903Z,1.6
2023-04-15T12:01:44.110Z,1.2
2023-04-15T12:05:55.736Z,1.2
2023-04-15T12:09:57.857Z,1
2023-04-15T12:12:01.342Z,1.3
2023-04-15T12:14:05.125Z,1.5
2023-04-15T12:18:14.740Z,1.1
2023-04-15T12:20:18.123Z,0.9
2023-04-15T12:28:31.970Z,1.6
2023-04-15T12:30:38.556Z,1.4
2023-04-15T12:32:43.442Z,1
2023-04-15T12:36:48.982Z,0.9
2023-04-15T12:38:52.409Z,0.6
2023-04-15T12:40:55.868Z,0.8
2023-04-15T12:42:59.312Z,1.2
2023-04-15T12:45:05.922Z,0.6
2023-04-15T12:49:12.834Z,1.1
2023-04-15T12:51:30.788Z,0.7
2023-04-15T12:53:34.277Z,0.6
2023-04-15T12:55:38.044Z,0.7
2023-04-15T12:57:44.307Z,0.8
2023-04-15T12:59:47.781Z,0.9
2023-04-15T13:01:51.374Z,0.6
2023-04-15T13:03:54.834Z,0.5
2023-04-15T13:08:01.743Z,0.7
2023-04-15T13:10:05.210Z,0.5
2023-04-15T13:16:20.344Z,0.6
2023-04-15T13:18:23.822Z,0.5
2023-04-15T13:26:40.935Z,0.6
2023-04-15T13:30:47.930Z,0.6
2023-04-15T13:32:51.459Z,1.1
2023-04-15T13:34:54.969Z,1
2023-04-15T13:36:58.467Z,0.6
2023-04-15T13:39:02.012Z,1.3
2023-04-15T13:41:08.596Z,1.1
2023-04-15T13:43:12.105Z,1
2023-04-15T13:46:19.139Z,1.3
2023-04-15T13:54:37.443Z,1.3
2023-04-15T13:56:39.680Z,1.3
2023-04-15T13:58:43.200Z,1.3
2023-04-15T14:13:11.090Z,2
2023-04-15T14:15:14.646Z,1.1
2023-04-15T14:19:21.791Z,1.6
2023-04-15T14:23:31.964Z,1.7
2023-04-15T14:27:39.063Z,1.1
2023-04-15T14:32:04.238Z,2
2023-04-15T14:33:49.822Z,1.6
2023-04-15T14:35:53.420Z,1.3
2023-04-15T14:38:00.077Z,1.7
2023-04-15T14:40:03.660Z,1.4
2023-04-15T14:42:07.166Z,1.8
2023-04-15T14:43:10.483Z,1.3
2023-04-15T14:47:17.619Z,1.4
2023-04-15T14:49:21.186Z,1.2
2023-04-15T14:51:27.817Z,1.2
2023-04-15T14:53:31.402Z,1.4
2023-04-15T14:55:34.982Z,2.1
2023-04-15T14:57:38.546Z,1.6
2023-04-15T14:59:42.148Z,1
2023-04-15T15:01:45.727Z,1.9
2023-04-15T15:03:49.396Z,1.2
2023-04-15T15:05:56.136Z,2.2
2023-04-15T15:07:59.547Z,1.3
2023-04-15T15:10:03.214Z,1.7
2023-04-15T15:12:06.656Z,2.2
2023-04-15T15:14:10.283Z,1.2
2023-04-15T15:16:14.661Z,1
2023-04-15T15:18:17.428Z,0.8
2023-04-15T15:20:26.165Z,0.8
2023-04-15T15:22:27.684Z,1
2023-04-15T15:24:31.233Z,0.8
2023-04-15T15:26:34.868Z,0.9
2023-04-15T15:28:38.405Z,1.5
2023-04-15T15:30:41.943Z,0.6
2023-04-15T15:34:52.169Z,1.2
2023-04-15T15:40:02.668Z,0.9
2023-04-15T15:42:06.296Z,1.3
2023-04-15T15:44:09.826Z,1.1
2023-04-15T15:46:13.443Z,1
2023-04-15T15:48:20.057Z,0.7
2023-04-15T15:50:24.378Z,0.9
2023-04-15T15:52:27.213Z,0.8
2023-04-15T15:58:38.018Z,1.2
2023-04-15T16:00:41.656Z,1
2023-04-15T16:03:05.845Z,1.3
2023-04-15T16:04:51.882Z,1.2
2023-04-15T16:06:55.404Z,1.4
2023-04-15T16:08:58.992Z,1.4
2023-04-15T16:11:02.553Z,0.5
2023-04-15T16:21:23.592Z,0.8
2023-04-15T16:38:16.147Z,1.4
2023-04-15T16:40:19.762Z,1.6
2023-04-15T16:52:44.440Z,1.7
2023-04-15T16:54:48.054Z,1.6
2023-04-15T16:58:58.331Z,2.3
2023-04-15T17:01:02.015Z,1.3
2023-04-15T17:03:06.041Z,1.1
2023-04-15T17:05:09.123Z,2.1
2023-04-15T17:07:12.775Z,1.6
2023-04-15T17:09:16.375Z,5.2
2023-04-15T17:11:19.986Z,1.8
2023-04-15T17:13:26.628Z,1.2
2023-04-15T17:15:30.807Z,1.6
2023-04-15T17:17:33.943Z,1.1
2023-04-15T17:19:37.482Z,2.7
2023-04-15T17:21:41.082Z,1.4
2023-04-15T17:25:48.288Z,1.2
2023-04-15T17:27:54.964Z,1.1
2023-04-15T17:32:02.154Z,1.6
2023-04-15T17:53:44.704Z,1.5
2023-04-15T17:55:51.388Z,1.6
2023-04-15T17:57:55.047Z,1
2023-04-15T17:59:58.609Z,1.5
2023-04-15T18:02:02.331Z,1.6
2023-04-15T18:20:37.860Z,1
2023-04-15T18:22:41.456Z,0.9
2023-04-15T18:26:51.779Z,1.3
2023-04-15T18:28:55.374Z,1.2
2023-04-15T18:29:58.727Z,0.9
2023-04-15T18:34:06.262Z,1.5
2023-04-15T18:36:09.578Z,1.5
2023-04-15T18:38:16.259Z,1.3
2023-04-15T18:40:19.892Z,1.7
2023-04-15T18:46:30.728Z,1.7
2023-04-15T18:52:44.671Z,1.4
2023-04-15T18:54:48.267Z,2.3
2023-04-15T18:56:51.895Z,1.9
2023-04-15T18:59:18.773Z,1.5
2023-04-15T19:00:59.200Z,1.9
2023-04-15T19:03:02.802Z,2.1
2023-04-15T19:05:06.420Z,1.8
2023-04-15T19:07:14.581Z,2
2023-04-15T19:09:18.188Z,1.6
2023-04-15T19:11:21.848Z,1.6
2023-04-15T19:13:25.401Z,1.9
2023-04-15T19:15:29.205Z,1.7
2023-04-15T19:17:32.686Z,1.9
2023-04-15T19:19:36.266Z,10.4
2023-04-15T19:21:42.971Z,7.5
2023-04-15T19:23:46.563Z,3.2
2023-04-15T19:25:50.200Z,2.6
2023-04-15T19:55:50.850Z,2
2023-04-15T20:02:01.892Z,7.5
2023-04-15T20:04:08.552Z,5
2023-04-15T20:06:12.027Z,3.6
2023-04-15T20:08:15.642Z,2
2023-04-15T20:10:19.256Z,2.1
2023-04-15T20:12:49.997Z,2.4
2023-04-15T20:18:36.801Z,1.9
2023-04-15T20:20:40.428Z,2.6
2023-04-15T20:22:44.013Z,2.5
2023-04-15T20:33:23.872Z,2.3
2023-04-15T20:35:27.466Z,3
2023-04-15T20:37:31.095Z,2.4
2023-04-15T20:39:34.729Z,2.6
2023-04-15T20:45:48.644Z,4.4
2023-04-15T20:47:52.225Z,2.1
2023-04-15T20:49:55.851Z,3.2
2023-04-15T20:51:59.482Z,2.4
2023-04-15T20:54:03.098Z,2.8
2023-04-15T20:56:06.714Z,2.7
2023-04-15T20:58:10.312Z,2.7
2023-04-15T21:02:20.741Z,2.8
2023-04-15T21:04:24.199Z,2.6
2023-04-15T21:06:27.814Z,2.3
2023-04-15T21:08:31.417Z,3.2
2023-04-15T21:10:35.051Z,2.8
2023-04-15T21:12:38.648Z,2.5
2023-04-15T21:14:45.332Z,3.6
2023-04-15T21:16:48.977Z,3.5
2023-04-15T21:18:52.548Z,3.1
2023-04-15T21:19:55.878Z,3.7
2023-04-15T21:21:59.527Z,3.5
2023-04-15T21:24:03.117Z,3.7
2023-04-15T21:26:06.746Z,3.7
2023-04-15T21:28:13.451Z,3.7
2023-04-15T21:30:17.061Z,4.3
2023-04-15T21:32:20.646Z,3.9
2023-04-15T21:34:24.311Z,3.5
2023-04-15T21:36:27.901Z,3.9
2023-04-15T21:38:31.504Z,4.6
2023-04-15T21:40:35.599Z,4.2
2023-04-15T21:42:41.810Z,5.3
2023-04-15T21:44:45.396Z,5.3
2023-04-15T21:46:49.046Z,4.7
2023-04-15T21:48:52.657Z,5.3
2023-04-15T21:50:56.268Z,5.2
2023-04-15T21:52:59.895Z,4.7
2023-04-15T21:55:03.522Z,5.9
2023-04-15T21:57:10.183Z,5.9
2023-04-15T22:03:21.200Z,5.2
2023-04-15T22:09:31.880Z,6.3
2023-04-15T22:13:42.189Z,5.4
2023-04-15T22:15:45.794Z,6
2023-04-15T22:16:49.171Z,5.9
2023-04-15T22:25:06.620Z,6.8
2023-04-15T22:33:21.099Z,7.3
2023-04-15T22:35:25.347Z,8
2023-04-15T22:37:28.295Z,7.8
2023-04-15T22:39:35.007Z,7.6
2023-04-15T22:41:38.572Z,7.9
2023-04-15T22:43:42.183Z,7
2023-04-15T22:45:45.874Z,8.9
2023-04-15T22:51:56.652Z,7.8
2023-04-15T22:54:03.340Z,8.7
2023-04-15T22:58:10.577Z,9.3
2023-04-15T23:00:14.203Z,8.4
2023-04-15T23:02:18.028Z,7.6
2023-04-15T23:04:23.691Z,8
2023-04-15T23:06:25.049Z,8.4
2023-04-15T23:08:31.682Z,8.7
2023-04-15T23:12:38.932Z,10.5
2023-04-15T23:13:42.272Z,10.3
2023-04-15T23:15:45.886Z,9.6
2023-04-15T23:17:49.525Z,8.6
2023-04-15T23:19:53.121Z,9.2
2023-04-15T23:28:10.612Z,9.5
2023-04-15T23:30:14.253Z,10.5
2023-04-15T23:34:21.447Z,9.1
2023-04-15T23:36:28.109Z,10.5
2023-04-15T23:38:31.756Z,10.9
2023-04-15T23:40:35.369Z,10.3
2023-04-15T23:42:38.994Z,10.2
2023-04-15T23:44:42.615Z,9.8
2023-04-15T23:46:46.230Z,10.3
2023-04-15T23:48:49.797Z,10.4
2023-04-15T23:50:56.503Z,11.2
2023-04-15T23:53:00.137Z,9.8
2023-04-15T23:55:03.723Z,10.7
2023-04-15T23:57:07.328Z,10.2
